createdAt,value
2022-10-18T00:00:20.811Z,32.10
2022-10-18T00:02:47.941Z,39.00
2022-10-18T00:05:16.030Z,37.10
2022-10-18T00:07:42.991Z,36.55
2022-10-18T00:10:10.702Z,34.13
2022-10-18T00:12:38.624Z,37.60
2022-10-18T00:15:08.131Z,36.20
2022-10-18T00:17:39.713Z,34.58
2022-10-18T00:20:07.735Z,37.15
2022-10-18T00:22:37.340Z,36.58
2022-10-18T00:25:06.048Z,39.17
2022-10-18T00:27:34.388Z,35.72
2022-10-18T00:30:01.384Z,34.22
2022-10-18T00:32:28.607Z,39.15
2022-10-18T00:34:55.811Z,39.15
2022-10-18T00:37:22.848Z,35.53
2022-10-18T00:39:49.841Z,33.53
2022-10-18T00:42:21.895Z,36.03
2022-10-18T00:44:51.962Z,36.05
2022-10-18T00:47:20.077Z,37.03
2022-10-18T00:49:56.080Z,39.55
2022-10-18T00:52:29.906Z,41.40
2022-10-18T00:54:58.526Z,37.30
2022-10-18T00:57:26.247Z,43.38
2022-10-18T00:59:54.139Z,37.88
2022-10-18T01:02:21.876Z,36.67
2022-10-18T01:04:49.334Z,37.42
2022-10-18T01:07:32.284Z,33.58
2022-10-18T01:10:08.635Z,40.05
2022-10-18T01:12:47.865Z,38.03
2022-10-18T01:15:48.816Z,31.48
2022-10-18T01:21:04.811Z,38.20
2022-10-18T01:23:50.965Z,37.08
2022-10-18T01:26:17.832Z,33.70
2022-10-18T01:29:09.133Z,34.45
2022-10-18T01:31:46.925Z,27.60
2022-10-18T01:34:18.324Z,27.15
2022-10-18T01:36:50.034Z,41.20
2022-10-18T01:39:22.527Z,30.45
2022-10-18T01:41:52.092Z,31.17
2022-10-18T01:44:24.939Z,32.03
2022-10-18T01:46:54.235Z,27.77
2022-10-18T01:49:21.872Z,27.15
2022-10-18T01:51:49.106Z,26.13
2022-10-18T01:54:20.900Z,27.50
2022-10-18T01:56:50.688Z,31.13
2022-10-18T01:59:46.964Z,27.40
2022-10-18T02:02:26.457Z,27.48
2022-10-18T02:05:34.811Z,29.55
2022-10-18T02:08:29.869Z,26.83
2022-10-18T02:11:04.923Z,30.40
2022-10-18T02:13:42.486Z,26.58
2022-10-18T02:16:16.063Z,22.85
2022-10-18T02:18:50.196Z,22.70
2022-10-18T02:21:21.050Z,24.35
2022-10-18T02:26:16.595Z,27.10
2022-10-18T02:28:46.035Z,26.88
2022-10-18T02:31:20.878Z,23.52
2022-10-18T02:33:58.960Z,24.15
2022-10-18T02:36:48.123Z,25.70
2022-10-18T02:39:19.705Z,24.80
2022-10-18T02:41:47.405Z,22.55
2022-10-18T02:44:14.483Z,24.33
2022-10-18T02:46:42.493Z,23.55
2022-10-18T02:49:09.514Z,23.13
2022-10-18T02:51:36.834Z,23.58
2022-10-18T02:54:04.086Z,22.48
2022-10-18T02:56:31.173Z,25.23
2022-10-18T02:58:58.244Z,19.67
2022-10-18T03:01:25.248Z,22.13
2022-10-18T03:03:52.225Z,26.00
2022-10-18T03:06:19.662Z,19.52
2022-10-18T03:08:46.658Z,22.48
2022-10-18T03:11:13.805Z,25.05
2022-10-18T03:13:40.781Z,21.70
2022-10-18T03:16:07.741Z,22.67
2022-10-18T03:18:34.770Z,21.98
2022-10-18T03:21:06.605Z,25.10
2022-10-18T03:23:33.618Z,19.88
2022-10-18T03:26:01.060Z,18.13
2022-10-18T03:28:28.131Z,23.58
2022-10-18T03:31:02.742Z,19.63
2022-10-18T03:33:30.867Z,17.42
2022-10-18T03:35:58.517Z,20.55
2022-10-18T03:38:25.527Z,19.40
2022-10-18T03:40:52.530Z,19.92
2022-10-18T03:43:19.874Z,22.35
2022-10-18T03:45:47.231Z,20.00
2022-10-18T03:48:14.524Z,22.30
2022-10-18T03:50:41.384Z,20.70
2022-10-18T03:53:08.441Z,19.58
2022-10-18T03:55:35.553Z,18.88
2022-10-18T03:58:04.900Z,20.92
2022-10-18T04:00:31.991Z,18.13
2022-10-18T04:02:58.967Z,19.42
2022-10-18T04:05:28.327Z,24.85
2022-10-18T04:07:55.452Z,19.92
2022-10-18T04:10:23.398Z,18.52
2022-10-18T04:12:50.325Z,22.85
2022-10-18T04:15:17.328Z,18.25
2022-10-18T04:17:44.243Z,20.38
2022-10-18T04:20:11.587Z,19.08
2022-10-18T04:22:38.639Z,19.65
2022-10-18T04:25:06.057Z,15.35
2022-10-18T04:27:33.336Z,19.60
2022-10-18T04:30:00.603Z,18.70
2022-10-18T04:32:29.437Z,17.10
2022-10-18T04:34:56.383Z,18.15
2022-10-18T04:37:23.721Z,20.67
2022-10-18T04:39:53.493Z,20.17
2022-10-18T04:42:21.828Z,19.23
2022-10-18T04:44:49.348Z,17.15
2022-10-18T04:47:17.497Z,16.70
2022-10-18T04:49:44.609Z,18.17
2022-10-18T04:52:11.662Z,17.25
2022-10-18T04:54:38.592Z,18.42
2022-10-18T04:57:05.620Z,18.92
2022-10-18T04:59:32.650Z,18.27
2022-10-18T05:01:59.683Z,17.48
2022-10-18T05:04:26.982Z,18.73
2022-10-18T05:06:53.926Z,16.45
2022-10-18T05:09:24.913Z,21.02
2022-10-18T05:11:52.006Z,25.20
2022-10-18T05:14:19.146Z,24.95
2022-10-18T05:16:46.303Z,29.50
2022-10-18T05:19:13.355Z,22.50
2022-10-18T05:21:40.515Z,28.13
2022-10-18T05:24:07.840Z,20.17
2022-10-18T05:26:34.841Z,22.88
2022-10-18T05:29:02.016Z,20.00
2022-10-18T05:31:30.886Z,15.25
2022-10-18T05:33:57.835Z,15.80
2022-10-18T05:36:26.479Z,17.33
2022-10-18T05:38:54.411Z,19.73
2022-10-18T05:41:21.820Z,20.48
2022-10-18T05:43:48.741Z,18.60
2022-10-18T05:46:15.966Z,21.25
2022-10-18T05:48:44.821Z,16.23
2022-10-18T05:51:12.291Z,17.65
2022-10-18T05:53:39.296Z,15.85
2022-10-18T05:56:07.448Z,15.52
2022-10-18T05:58:35.193Z,18.63
2022-10-18T06:01:03.386Z,17.65
2022-10-18T06:03:33.688Z,16.08
2022-10-18T06:06:01.239Z,16.92
2022-10-18T06:08:28.227Z,17.98
2022-10-18T06:10:55.321Z,16.67
2022-10-18T06:13:22.350Z,14.45
2022-10-18T06:15:49.458Z,16.13
2022-10-18T06:18:16.891Z,15.75
2022-10-18T06:20:43.916Z,23.40
2022-10-18T06:23:10.873Z,26.98
2022-10-18T06:25:37.785Z,20.67
2022-10-18T06:28:07.958Z,19.17
2022-10-18T06:30:37.406Z,19.90
2022-10-18T06:33:04.547Z,15.75
2022-10-18T06:35:31.568Z,17.55
2022-10-18T06:37:58.563Z,15.30
2022-10-18T06:40:25.517Z,14.75
2022-10-18T06:43:00.663Z,16.88
2022-10-18T06:45:37.545Z,14.88
2022-10-18T06:48:04.793Z,13.10
2022-10-18T06:50:31.776Z,16.75
2022-10-18T06:52:58.970Z,11.98
2022-10-18T06:55:25.921Z,12.90
2022-10-18T06:57:54.549Z,11.57
2022-10-18T07:00:21.458Z,13.18
2022-10-18T07:02:48.824Z,14.23
2022-10-18T07:05:15.997Z,10.93
2022-10-18T07:07:43.108Z,14.20
2022-10-18T07:10:13.004Z,14.57
2022-10-18T07:12:40.295Z,12.93
2022-10-18T07:15:09.451Z,13.60
2022-10-18T07:17:36.865Z,13.05
2022-10-18T07:20:04.645Z,12.90
2022-10-18T07:22:31.563Z,13.20
2022-10-18T07:24:58.519Z,12.55
2022-10-18T07:27:25.539Z,11.18
2022-10-18T07:29:52.496Z,12.43
2022-10-18T07:32:19.890Z,11.30
2022-10-18T07:34:46.842Z,12.55
2022-10-18T07:37:13.770Z,9.15
2022-10-18T07:39:40.703Z,11.23
2022-10-18T07:42:07.693Z,12.68
2022-10-18T07:44:34.525Z,11.50
2022-10-18T07:47:01.576Z,13.27
2022-10-18T07:49:28.539Z,11.27
2022-10-18T07:51:55.422Z,13.93
2022-10-18T07:54:22.848Z,12.00
2022-10-18T07:56:49.819Z,10.82
2022-10-18T07:59:16.801Z,9.98
2022-10-18T08:01:43.745Z,11.15
2022-10-18T08:04:16.070Z,10.93
2022-10-18T08:06:43.890Z,13.25
2022-10-18T08:09:10.887Z,11.32
2022-10-18T08:11:37.895Z,14.98
2022-10-18T08:14:04.877Z,14.75
2022-10-18T08:19:18.880Z,12.07
2022-10-18T08:21:45.835Z,15.43
2022-10-18T08:24:12.831Z,14.27
2022-10-18T08:26:39.725Z,10.50
2022-10-18T08:29:25.735Z,11.43
2022-10-18T08:31:53.630Z,12.80
2022-10-18T08:34:20.652Z,12.95
2022-10-18T08:36:47.625Z,11.05
2022-10-18T08:39:14.672Z,13.52
2022-10-18T08:41:54.172Z,15.13
2022-10-18T08:44:24.899Z,11.32
2022-10-18T08:49:33.739Z,15.00
2022-10-18T08:52:00.818Z,11.90
2022-10-18T08:54:32.054Z,16.35
2022-10-18T08:57:02.617Z,14.75
2022-10-18T09:02:20.926Z,10.75
2022-10-18T09:04:50.974Z,11.55
2022-10-18T09:07:55.630Z,11.90
2022-10-18T09:10:50.735Z,15.38
2022-10-18T09:13:58.910Z,11.55
2022-10-18T09:16:50.644Z,15.32
2022-10-18T09:19:35.830Z,16.27
2022-10-18T09:22:16.684Z,14.82
2022-10-18T09:27:21.051Z,14.40
2022-10-18T09:30:21.143Z,13.73
2022-10-18T09:32:59.949Z,13.80
2022-10-18T09:35:40.117Z,13.05
2022-10-18T09:38:13.479Z,12.63
2022-10-18T09:41:26.988Z,12.32
2022-10-18T09:44:16.164Z,14.48
2022-10-18T09:46:49.490Z,11.55
2022-10-18T09:49:31.301Z,13.18
2022-10-18T09:52:04.027Z,13.73
2022-10-18T09:54:42.373Z,14.50
2022-10-18T09:57:25.347Z,12.35
2022-10-18T09:59:52.415Z,11.40
2022-10-18T10:02:24.167Z,18.23
2022-10-18T10:04:52.395Z,15.25
2022-10-18T10:07:24.389Z,16.83
2022-10-18T10:10:05.037Z,12.10
2022-10-18T10:12:40.011Z,13.57
2022-10-18T10:15:12.889Z,11.02
2022-10-18T10:17:40.644Z,12.23
2022-10-18T10:20:23.613Z,14.82
2022-10-18T10:22:52.465Z,16.70
2022-10-18T10:25:29.373Z,17.10
2022-10-18T10:28:01.554Z,15.60
2022-10-18T10:30:32.900Z,12.57
2022-10-18T10:33:00.081Z,12.88
2022-10-18T10:35:54.347Z,14.13
2022-10-18T10:38:29.754Z,15.25
2022-10-18T10:40:57.625Z,12.55
2022-10-18T10:43:38.102Z,12.18
2022-10-18T10:46:20.285Z,15.05
2022-10-18T10:48:47.225Z,14.02
2022-10-18T10:51:16.217Z,14.30
2022-10-18T10:53:51.299Z,16.85
2022-10-18T10:56:28.220Z,17.05
2022-10-18T10:58:58.712Z,15.48
2022-10-18T11:01:33.552Z,17.75
2022-10-18T11:04:30.387Z,16.50
2022-10-18T11:07:36.370Z,17.52
2022-10-18T11:10:12.690Z,13.60
2022-10-18T11:13:08.125Z,15.43
2022-10-18T11:15:47.865Z,19.08
2022-10-18T11:18:20.415Z,14.77
2022-10-18T11:21:08.623Z,13.73
2022-10-18T11:23:38.104Z,17.85
2022-10-18T11:26:13.750Z,16.10
2022-10-18T11:29:06.838Z,17.15
2022-10-18T11:31:39.909Z,13.90
2022-10-18T11:34:54.802Z,15.82
2022-10-18T11:37:40.646Z,15.93
2022-10-18T11:40:45.218Z,15.80
2022-10-18T11:43:34.430Z,16.25
2022-10-18T11:46:48.126Z,16.17
2022-10-18T11:49:33.516Z,17.17
2022-10-18T11:52:12.258Z,16.70
2022-10-18T11:55:07.001Z,17.08
2022-10-18T11:57:55.334Z,15.82
2022-10-18T12:00:45.068Z,16.63
2022-10-18T12:03:21.503Z,15.60
2022-10-18T12:05:51.534Z,15.55
2022-10-18T12:08:21.375Z,14.68
2022-10-18T12:11:09.238Z,16.27
2022-10-18T12:13:48.901Z,17.60
2022-10-18T12:16:18.420Z,18.52
2022-10-18T12:19:00.967Z,17.27
2022-10-18T12:21:32.220Z,17.00
2022-10-18T12:24:07.322Z,15.73
2022-10-18T12:26:35.906Z,15.98
2022-10-18T12:29:45.393Z,16.73
2022-10-18T12:32:27.464Z,16.88
2022-10-18T12:35:06.970Z,18.08
2022-10-18T12:37:58.228Z,15.07
2022-10-18T12:40:46.235Z,20.33
2022-10-18T12:43:24.436Z,16.23
2022-10-18T12:45:56.292Z,17.85
2022-10-18T12:48:34.101Z,17.58
2022-10-18T12:51:22.306Z,16.65
2022-10-18T12:54:11.297Z,16.15
2022-10-18T12:56:42.392Z,16.42
2022-10-18T12:59:15.666Z,18.77
2022-10-18T13:01:51.729Z,17.77
2022-10-18T13:04:27.964Z,17.52
2022-10-18T13:06:57.734Z,17.13
2022-10-18T13:09:27.745Z,18.92
2022-10-18T13:12:02.075Z,20.67
2022-10-18T13:15:05.670Z,19.10
2022-10-18T13:18:01.345Z,19.77
2022-10-18T13:20:38.864Z,21.92
2022-10-18T13:23:17.963Z,16.20
2022-10-18T13:26:13.222Z,18.73
2022-10-18T13:28:40.172Z,21.48
2022-10-18T13:31:22.543Z,21.65
2022-10-18T13:33:50.483Z,18.85
2022-10-18T13:36:22.591Z,23.50
2022-10-18T13:39:06.489Z,21.55
2022-10-18T13:41:35.460Z,17.67
2022-10-18T13:44:02.714Z,20.50
2022-10-18T13:46:36.858Z,20.05
2022-10-18T13:49:22.681Z,18.77
2022-10-18T13:52:11.567Z,19.48
2022-10-18T13:54:44.549Z,16.90
2022-10-18T13:57:46.596Z,19.13
2022-10-18T14:00:19.480Z,19.52
2022-10-18T14:02:57.739Z,16.35
2022-10-18T14:06:00.786Z,18.70
2022-10-18T14:11:35.002Z,19.80
2022-10-18T14:14:14.613Z,22.10
2022-10-18T14:16:55.024Z,16.02
2022-10-18T14:19:51.541Z,17.58
2022-10-18T14:22:28.861Z,18.65
2022-10-18T14:24:58.071Z,17.42
2022-10-18T14:27:27.929Z,16.67
2022-10-18T14:30:27.433Z,19.98
2022-10-18T14:32:57.104Z,20.45
2022-10-18T14:35:32.533Z,25.48
2022-10-18T14:38:00.226Z,19.90
2022-10-18T14:40:31.989Z,24.00
2022-10-18T14:43:20.418Z,18.38
2022-10-18T14:45:47.447Z,22.35
2022-10-18T14:48:22.018Z,18.95
2022-10-18T14:50:59.511Z,19.25
2022-10-18T14:53:32.922Z,26.35
2022-10-18T14:56:01.285Z,22.15
2022-10-18T14:58:29.109Z,21.30
2022-10-18T15:00:56.264Z,19.88
2022-10-18T15:03:24.181Z,21.23
2022-10-18T15:05:56.195Z,21.45
2022-10-18T15:08:25.223Z,18.35
2022-10-18T15:10:52.716Z,26.27
2022-10-18T15:13:19.874Z,22.48
2022-10-18T15:15:47.540Z,28.00
2022-10-18T15:18:22.574Z,21.73
2022-10-18T15:21:22.525Z,31.20
2022-10-18T15:23:50.719Z,31.05
2022-10-18T15:26:35.855Z,33.72
2022-10-18T15:29:06.111Z,32.20
2022-10-18T15:31:44.612Z,30.02
2022-10-18T15:34:26.406Z,31.35
2022-10-18T15:36:56.380Z,29.42
2022-10-18T15:39:31.001Z,32.77
2022-10-18T15:42:00.253Z,33.20
2022-10-18T15:44:35.088Z,31.50
2022-10-18T15:47:16.490Z,35.40
2022-10-18T15:49:46.535Z,37.85
2022-10-18T15:52:22.499Z,32.38
2022-10-18T15:54:49.608Z,38.90
2022-10-18T15:57:18.815Z,32.60
2022-10-18T16:00:04.073Z,31.40
2022-10-18T16:02:31.892Z,34.28
2022-10-18T16:05:03.182Z,38.10
2022-10-18T16:07:30.437Z,39.00
2022-10-18T16:09:57.583Z,38.53
2022-10-18T16:12:24.419Z,32.15
2022-10-18T16:14:51.384Z,33.17
2022-10-18T16:17:18.401Z,38.65
2022-10-18T16:19:45.548Z,37.72
2022-10-18T16:25:00.681Z,34.63
2022-10-18T16:27:28.004Z,33.72
2022-10-18T16:29:54.942Z,39.47
2022-10-18T16:32:21.875Z,44.58
2022-10-18T16:34:48.815Z,46.88
2022-10-18T16:37:15.957Z,40.90
2022-10-18T16:39:42.795Z,37.50
2022-10-18T16:42:09.706Z,25.42
2022-10-18T16:44:36.657Z,25.63
2022-10-18T16:47:03.848Z,14.60
2022-10-18T16:49:30.862Z,11.13
2022-10-18T16:51:58.018Z,8.07
2022-10-18T16:54:25.156Z,11.57
2022-10-18T16:56:52.141Z,11.73
2022-10-18T16:59:26.383Z,11.00
2022-10-18T17:01:53.388Z,8.95
2022-10-18T17:04:20.447Z,7.75
2022-10-18T17:06:49.460Z,9.07
2022-10-18T17:09:16.757Z,11.32
2022-10-18T17:11:43.939Z,8.65
2022-10-18T17:14:10.921Z,15.25
2022-10-18T17:16:39.234Z,10.88
2022-10-18T17:19:10.698Z,12.00
2022-10-18T17:21:37.948Z,12.20
2022-10-18T17:24:06.449Z,12.18
2022-10-18T17:26:33.849Z,12.50
2022-10-18T17:29:04.736Z,13.00
2022-10-18T17:31:32.762Z,12.52
2022-10-18T17:34:02.232Z,9.25
2022-10-18T17:36:30.516Z,12.23
2022-10-18T17:38:57.493Z,10.95
2022-10-18T17:41:24.469Z,15.05
2022-10-18T17:43:51.472Z,21.40
2022-10-18T17:46:19.783Z,16.08
2022-10-18T17:48:47.157Z,15.90
2022-10-18T17:51:17.092Z,16.92
2022-10-18T17:53:44.530Z,21.63
2022-10-18T17:56:13.123Z,16.02
2022-10-18T17:58:40.121Z,15.93
2022-10-18T18:01:19.413Z,21.45
2022-10-18T18:03:48.132Z,23.33
2022-10-18T18:06:25.605Z,17.92
2022-10-18T18:08:52.647Z,13.52
2022-10-18T18:11:19.600Z,12.82
2022-10-18T18:13:46.585Z,14.95
2022-10-18T18:16:22.157Z,18.40
2022-10-18T18:18:52.725Z,12.73
2022-10-18T18:21:20.827Z,10.20
2022-10-18T18:23:48.873Z,9.18
2022-10-18T18:26:16.860Z,8.40
2022-10-18T18:28:44.213Z,6.75
2022-10-18T18:31:16.965Z,5.38
2022-10-18T18:33:44.381Z,6.22
2022-10-18T18:36:12.228Z,7.38
2022-10-18T18:38:42.891Z,6.63
2022-10-18T18:41:11.353Z,6.78
2022-10-18T18:43:39.876Z,4.95
2022-10-18T18:46:08.153Z,6.90
2022-10-18T18:48:36.404Z,6.38
2022-10-18T18:51:05.284Z,5.60
2022-10-18T18:53:32.968Z,6.38
2022-10-18T18:56:05.553Z,8.55
2022-10-18T18:58:34.965Z,9.85
2022-10-18T19:01:12.309Z,11.50
2022-10-18T19:03:40.592Z,8.27
2022-10-18T19:06:11.020Z,11.48
2022-10-18T19:08:39.633Z,15.27
2022-10-18T19:11:09.403Z,12.48
2022-10-18T19:13:37.175Z,10.40
2022-10-18T19:16:17.301Z,11.18
2022-10-18T19:18:44.458Z,15.98
2022-10-18T19:21:11.378Z,13.85
2022-10-18T19:23:38.326Z,13.93
2022-10-18T19:26:13.390Z,14.52
2022-10-18T19:28:40.324Z,9.65
2022-10-18T19:31:07.968Z,9.45
2022-10-18T19:33:47.954Z,11.13
2022-10-18T19:36:21.865Z,12.43
2022-10-18T19:38:48.849Z,13.75
2022-10-18T19:41:15.868Z,15.55
2022-10-18T19:43:42.900Z,16.45
2022-10-18T19:46:09.943Z,16.20
2022-10-18T19:48:36.937Z,18.20
2022-10-18T19:51:06.381Z,15.30
2022-10-18T19:53:35.797Z,15.18
2022-10-18T19:56:04.703Z,18.08
2022-10-18T19:58:32.597Z,17.17
2022-10-18T20:01:00.575Z,14.70
2022-10-18T20:03:30.640Z,13.90
2022-10-18T20:05:59.722Z,15.90
2022-10-18T20:08:28.707Z,15.65
2022-10-18T20:11:03.625Z,13.85
2022-10-18T20:13:30.792Z,14.45
2022-10-18T20:15:58.043Z,16.70
2022-10-18T20:18:25.496Z,11.88
2022-10-18T20:20:52.475Z,12.85
2022-10-18T20:23:20.344Z,14.23
2022-10-18T20:26:01.957Z,12.82
2022-10-18T20:28:29.769Z,15.05
2022-10-18T20:31:18.164Z,16.77
2022-10-18T20:33:47.086Z,21.67
2022-10-18T20:36:16.833Z,18.55
2022-10-18T20:38:45.914Z,12.27
2022-10-18T20:41:28.030Z,16.38
2022-10-18T20:43:59.919Z,16.30
2022-10-18T20:46:30.123Z,13.98
2022-10-18T20:48:57.527Z,10.90
2022-10-18T20:51:25.019Z,9.90
2022-10-18T20:53:52.568Z,11.38
2022-10-18T20:56:22.361Z,9.60
2022-10-18T20:58:55.664Z,15.05
2022-10-18T21:01:26.100Z,14.63
2022-10-18T21:03:55.203Z,13.82
2022-10-18T21:06:30.435Z,17.00
2022-10-18T21:09:03.949Z,16.40
2022-10-18T21:11:35.151Z,13.13
2022-10-18T21:14:06.589Z,15.10
2022-10-18T21:16:35.814Z,18.70
2022-10-18T21:19:29.378Z,15.23
2022-10-18T21:21:57.892Z,15.20
2022-10-18T21:24:26.373Z,13.55
2022-10-18T21:26:53.860Z,17.90
2022-10-18T21:29:22.492Z,17.05
2022-10-18T21:31:53.255Z,12.63
2022-10-18T21:34:20.217Z,14.65
2022-10-18T21:36:48.444Z,19.27
2022-10-18T21:39:18.443Z,15.57
2022-10-18T21:41:46.107Z,18.23
2022-10-18T21:44:13.325Z,12.52
2022-10-18T21:46:43.282Z,13.65
2022-10-18T21:49:11.267Z,16.70
2022-10-18T21:51:38.521Z,15.48
2022-10-18T21:54:08.640Z,17.80
2022-10-18T21:56:35.934Z,16.85
2022-10-18T21:59:04.147Z,15.73
2022-10-18T22:01:37.041Z,15.93
2022-10-18T22:04:06.445Z,17.98
2022-10-18T22:06:36.604Z,18.55
2022-10-18T22:09:07.555Z,16.85
2022-10-18T22:11:38.280Z,17.88
2022-10-18T22:16:32.373Z,20.65
2022-10-18T22:19:01.542Z,17.83
2022-10-18T22:21:29.710Z,20.55
2022-10-18T22:23:57.953Z,20.33
2022-10-18T22:26:35.515Z,25.10
2022-10-18T22:29:09.140Z,22.42
2022-10-18T22:31:39.273Z,24.70
2022-10-18T22:34:09.046Z,27.00
2022-10-18T22:36:36.466Z,32.03
2022-10-18T22:39:05.880Z,25.50
2022-10-18T22:41:33.815Z,26.92
2022-10-18T22:44:04.037Z,26.58
2022-10-18T22:46:33.177Z,29.83
2022-10-18T22:49:00.647Z,26.92
2022-10-18T22:51:27.929Z,31.63
2022-10-18T22:53:55.098Z,33.03
2022-10-18T22:56:23.325Z,34.40
2022-10-18T22:58:50.805Z,28.75
2022-10-18T23:01:20.786Z,32.17
2022-10-18T23:03:52.134Z,25.90
2022-10-18T23:06:30.428Z,31.17
2022-10-18T23:08:59.462Z,27.50
2022-10-18T23:11:28.603Z,26.98
2022-10-18T23:13:55.904Z,29.42
2022-10-18T23:16:23.636Z,29.33
2022-10-18T23:18:52.386Z,28.40
2022-10-18T23:21:20.531Z,29.25
2022-10-18T23:23:47.718Z,25.65
2022-10-18T23:26:16.829Z,27.77
2022-10-18T23:28:48.893Z,27.50
2022-10-18T23:31:26.331Z,29.60
2022-10-18T23:33:55.946Z,31.17
2022-10-18T23:36:25.144Z,26.02
2022-10-18T23:38:55.181Z,32.47
2022-10-18T23:41:22.939Z,25.63
2022-10-18T23:43:49.925Z,29.20
2022-10-18T23:46:18.100Z,27.65
2022-10-18T23:48:46.026Z,28.98
2022-10-18T23:51:13.240Z,32.63
2022-10-18T23:53:40.381Z,27.60
2022-10-18T23:56:12.983Z,35.05
2022-10-18T23:58:40.432Z,30.52
